Time;durP1;ratioP1;P1;durP2;ratioP2;P2;SDS_P1;SDS_P2;PMS_P1;PMS_P2;Temp;Humidity;BMP_temperature;BMP_pressure;BME280_temperature;BME280_humidity;BME280_pressure;Samples;Min_cycle;Max_cycle;Signal;HPM_P1;HPM_P2
2021/04/01 00:02:29;;;;;;;5.47;3.03;;;8.00;99.90;6.90;97199.00;;;;5067877;28;20216;-68
2021/04/01 00:05:18;;;;;;;4.50;2.93;;;7.90;99.90;6.90;97195.00;;;;5066225;28;20279;-68
2021/04/01 00:08:06;;;;;;;8.93;3.30;;;7.90;99.90;6.80;97199.00;;;;5067068;28;20361;-66
2021/04/01 00:10:54;;;;;;;5.23;3.43;;;7.80;99.90;6.70;97197.00;;;;5066054;28;20230;-68
2021/04/01 00:13:43;;;;;;;4.23;2.93;;;7.80;99.90;6.70;97186.00;;;;5068056;28;21034;-68
2021/04/01 00:16:33;;;;;;;5.53;3.00;;;7.70;99.90;6.80;97195.00;;;;5066534;28;20381;-68
2021/04/01 00:19:21;;;;;;;3.90;2.97;;;7.70;99.90;6.90;97190.00;;;;5066469;28;20325;-68
2021/04/01 00:22:09;;;;;;;4.93;3.70;;;7.60;99.90;6.70;97182.00;;;;5065580;28;20309;-68
2021/04/01 00:24:57;;;;;;;4.30;2.73;;;7.70;99.90;6.60;97175.00;;;;5081111;28;20598;-68
2021/04/01 00:27:45;;;;;;;5.20;2.67;;;7.60;99.90;6.70;97176.00;;;;5068388;28;20235;-68
2021/04/01 00:30:33;;;;;;;4.63;3.93;;;7.60;99.90;6.80;97175.00;;;;5066043;28;20698;-68
2021/04/01 00:33:22;;;;;;;9.53;3.40;;;7.60;99.90;6.80;97178.00;;;;5086498;28;20596;-67
2021/04/01 00:36:11;;;;;;;5.57;3.80;;;7.60;99.90;6.60;97176.00;;;;5085395;28;20214;-68
2021/04/01 00:38:59;;;;;;;5.43;2.63;;;7.60;99.90;6.40;97162.00;;;;5085656;28;20226;-68
2021/04/01 00:41:47;;;;;;;3.60;2.83;;;7.50;99.90;6.20;97164.00;;;;5086585;28;20341;-68
2021/04/01 00:44:35;;;;;;;3.70;3.10;;;7.50;99.90;6.10;97161.00;;;;5075240;28;20205;-68
2021/04/01 00:47:23;;;;;;;6.13;3.30;;;7.30;99.90;6.30;97153.00;;;;5085718;28;20224;-67
2021/04/01 00:50:15;;;;;;;5.30;2.90;;;7.30;99.90;6.40;97142.00;;;;5082187;28;20671;-68
2021/04/01 00:53:04;;;;;;;5.00;2.70;;;7.20;99.90;6.30;97150.00;;;;5065760;28;20212;-68
2021/04/01 00:55:52;;;;;;;5.53;3.20;;;7.30;99.90;6.00;97142.00;;;;5065915;28;20626;-67
2021/04/01 00:58:40;;;;;;;4.67;3.20;;;7.20;99.90;5.70;97138.00;;;;5064280;28;20234;-69
2021/04/01 01:01:36;;;;;;;3.57;2.60;;;7.00;99.90;5.80;97129.00;;;;5065076;28;20196;-68
2021/04/01 01:04:24;;;;;;;3.93;2.70;;;6.90;99.90;6.00;97139.00;;;;5065632;28;20230;-68
2021/04/01 01:07:13;;;;;;;5.97;3.10;;;6.90;99.90;6.10;97139.00;;;;5067182;28;20223;-68
2021/04/01 01:10:02;;;;;;;3.63;3.00;;;6.90;99.90;6.20;97125.00;;;;5065648;28;20909;-68
2021/04/01 01:12:50;;;;;;;3.10;2.87;;;7.00;99.90;6.20;97126.00;;;;5065557;28;20195;-68
2021/04/01 01:15:38;;;;;;;5.57;4.00;;;7.00;99.90;6.20;97124.00;;;;5068525;28;20207;-67
2021/04/01 01:18:27;;;;;;;3.23;2.93;;;7.10;99.90;6.00;97116.00;;;;5080108;28;20224;-68
2021/04/01 01:21:16;;;;;;;3.57;2.77;;;7.10;99.90;5.60;97119.00;;;;5064404;28;20200;-68
2021/04/01 01:24:12;;;;;;;4.50;3.67;;;6.90;99.90;5.60;97112.00;;;;5069333;28;20196;-67
2021/04/01 01:27:02;;;;;;;7.00;3.87;;;6.80;99.90;5.50;97116.00;;;;5065340;28;20462;-67
2021/04/01 01:29:50;;;;;;;5.93;4.17;;;6.60;99.90;5.70;97110.00;;;;5064436;28;20207;-67
2021/04/01 01:32:39;;;;;;;3.43;3.13;;;6.60;99.90;6.00;97122.00;;;;5064767;28;20572;-68
2021/04/01 01:35:30;;;;;;;12.37;3.73;;;6.70;99.90;6.00;97106.00;;;;5065028;28;20430;-68
2021/04/01 01:38:19;;;;;;;4.07;3.00;;;6.70;99.90;5.60;97105.00;;;;5064302;28;20454;-68
2021/04/01 01:41:08;;;;;;;6.20;3.40;;;6.70;99.90;5.60;97104.00;;;;5065263;28;20427;-68
2021/04/01 01:43:58;;;;;;;4.73;3.77;;;6.60;99.90;5.80;97099.00;;;;5065517;28;20204;-68
2021/04/01 01:46:46;;;;;;;4.77;4.07;;;6.60;99.90;5.90;97095.00;;;;5064922;28;21010;-68
2021/04/01 01:49:40;;;;;;;4.20;3.33;;;6.70;99.90;5.60;97098.00;;;;5063435;28;20450;-67
2021/04/01 01:52:28;;;;;;;8.43;3.40;;;6.60;99.90;5.80;97097.00;;;;5065181;28;20562;-67
2021/04/01 01:55:16;;;;;;;9.60;3.43;;;6.70;99.90;5.80;97088.00;;;;5064315;28;20435;-68
2021/04/01 01:58:06;;;;;;;4.83;3.00;;;6.70;99.90;5.60;97088.00;;;;5065402;28;21226;-67
2021/04/01 02:00:56;;;;;;;4.67;3.10;;;6.80;99.90;5.40;97073.00;;;;5062359;28;20423;-67
2021/04/01 02:03:44;;;;;;;4.80;3.57;;;6.60;99.90;5.40;97075.00;;;;5064693;28;20463;-67
2021/04/01 02:06:33;;;;;;;3.83;3.43;;;6.50;99.90;5.60;97088.00;;;;5063850;28;20438;-67
2021/04/01 02:09:21;;;;;;;3.70;3.27;;;6.50;99.90;5.60;97071.00;;;;5063960;28;20438;-69
2021/04/01 02:12:10;;;;;;;4.50;4.00;;;6.90;99.90;5.50;97076.00;;;;5068692;28;20431;-68
2021/04/01 02:14:58;;;;;;;6.27;3.37;;;6.50;99.90;5.70;97078.00;;;;5067734;28;20805;-68
2021/04/01 02:17:46;;;;;;;4.40;3.23;;;6.50;99.90;5.50;97077.00;;;;5068765;28;20482;-68
2021/04/01 02:20:41;;;;;;;4.93;3.10;;;6.60;99.90;5.20;97075.00;;;;5067678;28;20438;-69
2021/04/01 02:23:31;;;;;;;5.57;4.10;;;6.40;99.90;5.40;97061.00;;;;5071848;28;20438;-68
2021/04/01 02:26:19;;;;;;;4.07;2.83;;;6.40;99.90;5.20;97067.00;;;;5068103;28;20430;-68
2021/04/01 02:29:06;;;;;;;5.43;3.00;;;6.30;99.90;5.20;97069.00;;;;5080873;28;20464;-69
2021/04/01 02:31:55;;;;;;;5.30;3.07;;;6.30;99.90;5.30;97064.00;;;;5084510;28;20426;-68
2021/04/01 02:34:44;;;;;;;4.63;4.20;;;6.20;99.90;5.30;97055.00;;;;5079664;28;20433;-68
2021/04/01 02:37:31;;;;;;;3.83;3.23;;;6.20;99.90;5.50;97060.00;;;;5089057;28;20488;-68
2021/04/01 02:40:19;;;;;;;7.83;4.00;;;6.30;99.90;5.60;97055.00;;;;5082792;28;20434;-68
2021/04/01 02:43:09;;;;;;;8.83;3.67;;;6.40;99.90;5.50;97056.00;;;;5081582;28;20436;-68
2021/04/01 02:45:57;;;;;;;5.97;3.37;;;6.40;99.90;5.80;97060.00;;;;5076691;28;20438;-68
2021/04/01 02:48:46;;;;;;;5.33;3.70;;;6.50;99.90;6.20;97061.00;;;;5088403;28;20449;-67
2021/04/01 02:51:34;;;;;;;4.33;3.73;;;6.70;99.90;6.30;97055.00;;;;5088566;28;20421;-68
2021/04/01 02:54:22;;;;;;;6.47;3.80;;;6.80;99.90;5.60;97044.00;;;;5088395;28;20488;-68
2021/04/01 02:57:17;;;;;;;9.50;4.10;;;6.80;99.90;5.60;97043.00;;;;5087817;28;20433;-68
2021/04/01 03:00:10;;;;;;;5.67;3.60;;;6.70;99.90;5.30;97042.00;;;;5076483;28;20449;-69
2021/04/01 03:03:01;;;;;;;4.37;3.17;;;6.60;99.90;5.40;97038.00;;;;5082241;28;20206;-67
2021/04/01 03:05:50;;;;;;;6.63;3.50;;;6.50;99.90;5.40;97039.00;;;;5074295;28;20423;-69
2021/04/01 03:08:37;;;;;;;4.03;3.40;;;6.50;99.90;5.20;97024.00;;;;5067485;28;20450;-67
2021/04/01 03:11:25;;;;;;;6.30;3.47;;;6.30;99.90;5.20;97033.00;;;;5083089;28;20426;-67
2021/04/01 03:14:13;;;;;;;5.93;3.40;;;6.30;99.90;5.20;97034.00;;;;5067707;28;20438;-68
2021/04/01 03:17:01;;;;;;;6.10;4.17;;;6.30;99.90;5.20;97031.00;;;;5068566;28;20442;-68
2021/04/01 03:19:49;;;;;;;4.40;3.43;;;6.80;99.90;5.10;97034.00;;;;5067278;28;20430;-68
2021/04/01 03:22:38;;;;;;;3.67;3.17;;;6.20;99.90;5.40;97027.00;;;;5071860;28;20438;-68
2021/04/01 03:25:27;;;;;;;6.17;4.07;;;6.20;99.90;5.50;97026.00;;;;5088609;28;20434;-68
2021/04/01 03:28:17;;;;;;;5.07;3.87;;;6.30;99.90;5.30;97035.00;;;;5087347;28;20474;-68
2021/04/01 03:31:05;;;;;;;4.80;3.57;;;6.30;99.90;5.20;97032.00;;;;5086343;28;20463;-67
2021/04/01 03:33:53;;;;;;;4.60;3.40;;;6.30;99.90;5.20;97030.00;;;;5085896;28;20948;-68
2021/04/01 03:36:45;;;;;;;4.63;3.33;;;6.20;99.90;5.20;97033.00;;;;5072895;28;20957;-68
2021/04/01 03:39:33;;;;;;;8.83;3.47;;;6.20;99.90;5.10;97022.00;;;;5086175;28;20458;-68
2021/04/01 03:42:22;;;;;;;4.70;3.00;;;6.10;99.90;5.20;97029.00;;;;5086767;28;20988;-68
2021/04/01 03:45:15;;;;;;;7.10;3.73;;;6.20;99.90;4.90;97018.00;;;;5086933;28;20422;-68
2021/04/01 03:48:03;;;;;;;9.87;3.60;;;6.10;99.90;4.90;97025.00;;;;5085631;28;20458;-68
2021/04/01 03:50:51;;;;;;;7.93;3.80;;;6.00;99.90;5.10;97023.00;;;;5077535;28;20433;-68
2021/04/01 03:53:39;;;;;;;5.87;4.20;;;6.00;99.90;5.40;97030.00;;;;5083422;28;20433;-67
2021/04/01 03:56:27;;;;;;;5.87;3.70;;;6.10;99.90;5.70;97024.00;;;;5087488;28;20491;-68
2021/04/01 03:59:18;;;;;;;9.70;3.70;;;6.20;99.90;5.80;97029.00;;;;5072969;28;20482;-68
2021/04/01 04:02:16;;;;;;;7.03;3.90;;;6.40;99.90;6.00;97025.00;;;;5081898;28;20429;-67
2021/04/01 04:05:20;;;;;;;4.43;3.50;;;6.50;99.90;5.70;97029.00;;;;5085846;28;20425;-67
2021/04/01 04:11:26;;;;;;;13.00;3.60;;;6.60;99.90;5.40;97011.00;;;;5057418;28;20755;-68
2021/04/01 04:14:19;;;;;;;6.20;3.43;;;6.50;99.90;5.40;97010.00;;;;5067389;28;20814;-67
2021/04/01 04:17:07;;;;;;;6.60;3.83;;;6.50;99.90;5.40;97008.00;;;;5078543;28;20442;-67
2021/04/01 04:19:54;;;;;;;4.13;3.13;;;6.40;99.90;5.50;97011.00;;;;5072160;28;20437;-68
2021/04/01 04:22:42;;;;;;;4.70;2.97;;;6.40;99.90;5.70;97014.00;;;;5074494;28;21165;-68
2021/04/01 04:25:30;;;;;;;4.93;3.20;;;6.50;99.90;5.80;97013.00;;;;5070909;28;20430;-67
2021/04/01 04:31:27;;;;;;;8.27;3.90;;;6.60;99.90;5.20;97001.00;;;;5069847;28;20214;-67
2021/04/01 04:34:15;;;;;;;13.77;4.33;;;6.50;99.90;5.30;97002.00;;;;5084083;28;20214;-68
2021/04/01 04:37:03;;;;;;;4.37;3.30;;;6.40;99.90;5.10;96991.00;;;;5068025;28;20470;-68
2021/04/01 04:39:51;;;;;;;9.30;3.30;;;6.30;99.90;5.00;96998.00;;;;5077151;28;20434;-67
2021/04/01 04:42:39;;;;;;;7.07;3.93;;;6.20;99.90;5.20;96991.00;;;;5077642;28;20422;-68
2021/04/01 04:45:27;;;;;;;9.27;3.50;;;6.10;99.90;5.20;96987.00;;;;5065792;28;20826;-67
2021/04/01 04:48:16;;;;;;;10.07;5.47;;;6.20;99.90;5.10;97002.00;;;;5065941;28;20451;-67
2021/04/01 04:51:04;;;;;;;6.17;3.40;;;6.10;99.90;5.10;96987.00;;;;5067952;28;20426;-68
2021/04/01 04:53:53;;;;;;;5.37;3.97;;;6.10;99.90;5.00;96980.00;;;;5066200;28;20442;-68
2021/04/01 04:56:41;;;;;;;4.00;3.50;;;6.10;99.90;5.10;96981.00;;;;5065823;28;20443;-68
2021/04/01 04:59:30;;;;;;;8.50;4.40;;;6.60;99.90;5.10;96984.00;;;;5064703;28;20486;-68
2021/04/01 05:05:25;;;;;;;8.90;3.80;;;6.10;99.90;5.50;96985.00;;;;5065849;28;20438;-68
2021/04/01 05:08:12;;;;;;;5.63;4.10;;;6.20;99.90;5.40;96987.00;;;;5065053;28;20458;-68
2021/04/01 05:11:00;;;;;;;8.13;3.50;;;6.30;99.90;5.50;96980.00;;;;5064591;28;20434;-68
2021/04/01 05:13:48;;;;;;;3.57;3.23;;;6.30;99.90;5.60;97000.00;;;;5065502;28;20809;-68
2021/04/01 05:16:36;;;;;;;3.43;2.80;;;6.40;99.90;6.10;97002.00;;;;5064181;28;20432;-68
2021/04/01 05:19:25;;;;;;;4.53;3.57;;;6.50;99.90;6.40;96997.00;;;;5064255;28;20477;-68
2021/04/01 05:22:16;;;;;;;7.93;3.90;;;6.70;99.90;6.50;96999.00;;;;5065699;28;20204;-68
2021/04/01 05:25:06;;;;;;;4.93;3.63;;;7.00;99.90;6.60;96996.00;;;;5080197;28;20434;-68
2021/04/01 05:27:56;;;;;;;11.57;4.10;;;7.10;99.90;6.50;97004.00;;;;5074681;28;20242;-68
2021/04/01 05:30:44;;;;;;;9.30;3.43;;;7.30;99.90;6.30;96990.00;;;;5077963;28;20200;-68
2021/04/01 05:33:34;;;;;;;5.83;3.43;;;7.30;99.90;6.40;96991.00;;;;5065005;28;20215;-68
2021/04/01 05:36:24;;;;;;;3.93;3.40;;;7.30;99.90;6.40;96996.00;;;;5065497;28;20287;-68
2021/04/01 05:39:16;;;;;;;5.20;3.60;;;7.30;99.90;6.20;96998.00;;;;5066238;28;20223;-67
2021/04/01 05:42:06;;;;;;;6.00;4.00;;;7.30;99.90;6.30;96992.00;;;;5074769;28;20202;-68
2021/04/01 05:44:56;;;;;;;4.33;3.50;;;7.20;99.90;6.20;96987.00;;;;5073409;28;20208;-67
2021/04/01 05:47:47;;;;;;;6.33;3.80;;;7.20;99.90;6.10;97002.00;;;;5068911;28;20234;-68
2021/04/01 05:50:45;;;;;;;4.80;3.27;;;7.10;99.90;6.10;96990.00;;;;5072870;28;20668;-67
2021/04/01 06:00:10;;;;;;;8.97;3.30;;;7.20;99.90;6.60;96991.00;;;;5068640;28;20224;-68
2021/04/01 06:06:19;;;;;;;5.17;3.43;;;7.40;99.90;7.10;97001.00;;;;5075066;28;20268;-68
2021/04/01 06:09:20;;;;;;;8.00;3.67;;;7.60;99.90;7.20;97000.00;;;;5075837;28;20246;-68
2021/04/01 06:12:10;;;;;;;5.00;3.90;;;7.80;99.90;7.20;97002.00;;;;5069404;28;20211;-68
2021/04/01 06:15:07;;;;;;;3.80;2.77;;;7.90;99.90;7.20;97000.00;;;;5065346;28;20587;-69
2021/04/01 06:18:11;;;;;;;5.20;3.17;;;8.00;99.90;7.30;97004.00;;;;5064495;28;20228;-68
2021/04/01 06:21:11;;;;;;;3.63;3.13;;;7.40;99.90;7.60;96991.00;;;;5070771;28;20213;-68
2021/04/01 06:24:12;;;;;;;5.17;3.07;;;8.20;99.90;8.00;97003.00;;;;5077891;28;20203;-68
2021/04/01 06:27:10;;;;;;;8.10;3.67;;;8.30;99.90;8.10;97004.00;;;;5086112;28;20214;-67
2021/04/01 06:30:15;;;;;;;7.93;3.17;;;8.60;99.90;8.20;97000.00;;;;5078229;28;20899;-67
2021/04/01 06:33:06;;;;;;;5.40;2.97;;;8.80;99.90;8.60;96991.00;;;;5066821;28;20214;-68
2021/04/01 06:35:57;;;;;;;3.93;3.30;;;9.00;99.90;8.80;97005.00;;;;5081962;28;20211;-68
2021/04/01 06:38:45;;;;;;;4.87;3.13;;;9.20;99.90;9.10;97001.00;;;;5081248;28;20231;-68
2021/04/01 06:41:33;;;;;;;7.50;3.60;;;9.40;99.90;9.10;97006.00;;;;5087550;28;20679;-68
2021/04/01 06:44:28;;;;;;;6.20;3.60;;;9.60;99.90;9.30;96991.00;;;;5088861;28;20195;-68
2021/04/01 06:47:23;;;;;;;4.87;3.37;;;9.80;99.90;9.60;97002.00;;;;5083782;28;20211;-68
2021/04/01 06:50:21;;;;;;;6.40;3.47;;;10.00;99.90;9.80;97004.00;;;;5084800;28;20218;-68
2021/04/01 06:53:13;;;;;;;6.30;3.53;;;10.10;99.90;10.10;97010.00;;;;5080011;28;20239;-67
2021/04/01 06:56:09;;;;;;;5.73;3.87;;;10.30;99.90;10.60;97001.00;;;;5064268;28;20231;-68
2021/04/01 06:59:09;;;;;;;8.93;3.97;;;10.60;99.90;11.10;97002.00;;;;5067770;28;20228;-68
2021/04/01 07:02:11;;;;;;;7.13;3.20;;;11.00;99.90;11.60;96992.00;;;;5067413;28;20215;-68
2021/04/01 07:05:21;;;;;;;8.30;4.03;;;11.40;99.90;11.90;97003.00;;;;5081792;28;20219;-68
2021/04/01 07:08:12;;;;;;;8.30;3.40;;;11.80;99.90;12.20;97004.00;;;;5073045;28;20224;-67
2021/04/01 07:11:02;;;;;;;5.47;3.27;;;12.20;99.90;12.40;97000.00;;;;5074713;28;20199;-68
2021/04/01 07:13:56;;;;;;;6.70;3.03;;;12.50;99.90;12.40;97004.00;;;;5078222;28;20588;-67
2021/04/01 07:16:48;;;;;;;6.00;3.00;;;12.70;99.90;12.60;96985.00;;;;5078898;28;20675;-68
2021/04/01 07:36:00;;;;;;;11.13;3.23;;;14.00;99.70;14.20;96988.00;;;;5079887;28;20207;-67
2021/04/01 07:48:45;;;;;;;5.70;2.80;;;14.70;93.60;14.40;96979.00;;;;4985987;28;20233;-67
2021/04/01 07:51:51;;;;;;;9.67;2.57;;;14.80;92.50;14.90;96967.00;;;;5081282;28;20286;-68
2021/04/01 07:54:55;;;;;;;11.00;2.60;;;15.00;92.10;15.20;96965.00;;;;5068696;28;20693;-68
2021/04/01 08:01:02;;;;;;;6.17;2.73;;;15.50;87.30;15.60;96968.00;;;;5073092;28;20215;-67
2021/04/01 08:03:56;;;;;;;5.43;2.70;;;15.70;86.10;15.80;96962.00;;;;5076571;28;20666;-67
2021/04/01 08:06:44;;;;;;;6.10;3.20;;;15.90;82.70;15.90;96957.00;;;;5075078;28;20678;-67
2021/04/01 08:09:35;;;;;;;5.33;3.03;;;16.10;81.40;16.10;96957.00;;;;5070601;28;20223;-67
2021/04/01 08:12:27;;;;;;;8.53;3.20;;;16.30;79.00;16.30;96965.00;;;;5087584;28;20203;-67
2021/04/01 08:15:17;;;;;;;4.40;2.57;;;16.50;78.70;16.50;96957.00;;;;5078713;28;20203;-67
2021/04/01 08:21:14;;;;;;;5.23;3.07;;;16.80;76.60;17.00;96950.00;;;;5084853;28;20832;-67
2021/04/01 08:24:24;;;;;;;3.43;2.77;;;17.10;74.00;17.30;96955.00;;;;5076833;28;21005;-68
2021/04/01 08:27:44;;;;;;;4.53;2.30;;;17.30;73.50;17.60;96955.00;;;;5076787;28;20235;-67
2021/04/01 08:34:35;;;;;;;5.03;2.73;;;17.90;69.60;18.20;96937.00;;;;5086671;28;20210;-68
2021/04/01 08:37:54;;;;;;;6.13;3.70;;;18.10;65.90;18.30;96933.00;;;;5085768;28;20203;-67
2021/04/01 08:41:16;;;;;;;5.77;2.90;;;18.40;65.20;18.60;96934.00;;;;5084568;28;20200;-67
2021/04/01 08:45:07;;;;;;;5.80;2.87;;;18.60;62.50;19.00;96924.00;;;;5078489;28;20267;-67
2021/04/01 08:48:49;;;;;;;4.57;3.33;;;18.90;62.60;19.30;96916.00;;;;5090553;28;20257;-67
2021/04/01 08:52:24;;;;;;;7.30;3.27;;;19.20;60.50;19.50;96923.00;;;;5076032;28;20211;-67
2021/04/01 08:55:16;;;;;;;4.87;2.97;;;19.50;59.50;19.70;96915.00;;;;5066686;28;20199;-67
2021/04/01 08:58:16;;;;;;;5.00;2.80;;;19.80;58.60;20.00;96908.00;;;;5084381;28;20515;-67
2021/04/01 09:01:14;;;;;;;6.43;2.70;;;20.00;58.60;20.10;96908.00;;;;5085347;28;20618;-67
2021/04/01 09:04:02;;;;;;;6.77;2.80;;;20.20;58.00;20.50;96894.00;;;;5084283;28;20817;-67
2021/04/01 09:06:54;;;;;;;7.33;2.50;;;20.40;57.80;20.50;96897.00;;;;5084220;28;20382;-67
2021/04/01 09:09:45;;;;;;;5.63;2.63;;;20.60;57.20;20.70;96894.00;;;;5083833;28;20227;-67
2021/04/01 09:12:48;;;;;;;3.30;2.57;;;20.80;57.00;21.10;96893.00;;;;5083942;28;20603;-66
2021/04/01 09:15:42;;;;;;;6.20;3.00;;;21.00;57.60;21.30;96889.00;;;;5085301;28;20210;-67
2021/04/01 09:18:33;;;;;;;4.17;3.03;;;21.30;57.00;21.60;96887.00;;;;5075015;28;20227;-68
2021/04/01 09:21:32;;;;;;;7.30;2.40;;;21.40;56.60;21.80;96887.00;;;;5076466;28;20199;-68
2021/04/01 09:24:28;;;;;;;7.93;2.60;;;21.70;55.60;22.10;96883.00;;;;5076538;28;20207;-67
2021/04/01 09:27:16;;;;;;;6.03;2.50;;;22.00;55.40;22.20;96900.00;;;;5076944;28;20200;-69
2021/04/01 09:30:08;;;;;;;6.27;3.00;;;22.10;53.90;21.90;96894.00;;;;5075039;28;20701;-69
2021/04/01 09:33:01;;;;;;;3.30;2.50;;;22.20;53.70;21.40;96885.00;;;;5064895;28;20728;-68
2021/04/01 09:35:49;;;;;;;4.23;2.40;;;22.10;52.50;21.60;96891.00;;;;5071709;28;20199;-68
2021/04/01 09:38:39;;;;;;;4.60;2.43;;;22.00;52.60;21.80;96884.00;;;;5083939;28;20227;-68
2021/04/01 09:41:30;;;;;;;6.07;2.60;;;22.00;53.00;21.90;96877.00;;;;5084496;28;20210;-68
2021/04/01 09:44:18;;;;;;;5.33;2.63;;;22.10;51.60;22.10;96873.00;;;;5085382;28;20206;-69
2021/04/01 09:47:15;;;;;;;3.23;2.80;;;22.30;50.80;22.30;96866.00;;;;5080711;28;20208;-68
2021/04/01 09:50:07;;;;;;;3.73;2.93;;;22.40;50.70;22.40;96871.00;;;;5075424;28;20204;-68
2021/04/01 09:53:00;;;;;;;7.90;2.67;;;22.50;49.10;22.90;96858.00;;;;5078648;28;20210;-68
2021/04/01 09:55:51;;;;;;;5.10;2.27;;;22.80;50.20;23.10;96854.00;;;;5083905;28;20203;-69
2021/04/01 09:58:40;;;;;;;7.30;2.40;;;22.70;49.70;23.40;96855.00;;;;5083533;28;21104;-68
2021/04/01 10:01:31;;;;;;;6.40;2.40;;;23.20;50.30;23.90;96846.00;;;;5071443;28;20206;-68
2021/04/01 10:04:26;;;;;;;3.80;2.17;;;23.50;49.90;23.80;96844.00;;;;5070569;28;20222;-68
2021/04/01 10:07:15;;;;;;;5.10;2.83;;;23.70;47.60;24.00;96834.00;;;;5063716;28;20203;-68
2021/04/01 10:10:06;;;;;;;4.50;2.40;;;23.90;47.90;24.10;96833.00;;;;5070871;28;20210;-69
2021/04/01 10:12:54;;;;;;;5.63;2.17;;;24.00;47.00;24.20;96828.00;;;;5067849;28;20224;-67
2021/04/01 10:15:43;;;;;;;6.40;2.87;;;24.20;45.80;24.40;96816.00;;;;5078664;28;20211;-67
2021/04/01 10:18:36;;;;;;;3.63;2.40;;;24.30;46.10;24.30;96813.00;;;;5083439;28;20909;-69
2021/04/01 10:21:24;;;;;;;7.97;3.07;;;24.40;44.00;24.70;96815.00;;;;5076958;28;20214;-67
2021/04/01 10:24:24;;;;;;;163.30;145.40;;;24.60;44.40;25.00;96803.00;;;;5080189;28;20207;-67
2021/04/01 10:27:26;;;;;;;60.47;52.87;;;24.70;43.70;25.10;96793.00;;;;5077540;28;20203;-69
2021/04/01 10:30:17;;;;;;;22.63;20.23;;;25.00;43.00;24.80;96789.00;;;;5077669;28;20198;-69
2021/04/01 10:33:08;;;;;;;13.23;9.73;;;25.00;42.30;24.70;96776.00;;;;5088419;28;20717;-68
2021/04/01 10:36:04;;;;;;;15.97;12.00;;;25.00;41.70;25.20;96774.00;;;;5088957;28;20203;-68
2021/04/01 10:38:54;;;;;;;80.07;72.27;;;25.10;41.80;25.60;96783.00;;;;5088104;28;20230;-68
2021/04/01 10:41:49;;;;;;;34.27;25.70;;;25.30;42.70;26.00;96778.00;;;;5088978;28;20202;-66
2021/04/01 10:44:39;;;;;;;11.43;8.37;;;25.60;42.20;26.00;96777.00;;;;5088776;28;20608;-69
2021/04/01 10:47:50;;;;;;;13.63;10.07;;;25.80;40.80;26.30;96764.00;;;;5075351;28;20211;-69
2021/04/01 10:50:39;;;;;;;144.87;110.80;;;26.10;40.90;26.50;96765.00;;;;5087947;28;20207;-67
2021/04/01 10:53:27;;;;;;;44.80;35.60;;;26.20;40.00;27.00;96762.00;;;;5085106;28;20205;-66
2021/04/01 10:56:16;;;;;;;51.70;36.27;;;26.50;40.40;27.40;96762.00;;;;5076429;28;20205;-66
2021/04/01 10:59:04;;;;;;;95.33;70.77;;;26.80;40.80;28.00;96760.00;;;;5077423;28;20224;-67
2021/04/01 11:01:52;;;;;;;36.93;27.77;;;27.20;40.70;28.20;96758.00;;;;5085161;28;20203;-69
2021/04/01 11:04:43;;;;;;;15.60;9.17;;;27.60;38.60;28.30;96752.00;;;;5082953;28;20889;-69
2021/04/01 11:07:36;;;;;;;22.77;15.73;;;27.90;38.10;28.50;96749.00;;;;5086854;28;20195;-67
2021/04/01 11:10:27;;;;;;;7.22;5.43;;;28.20;38.40;27.70;96740.00;;;;5085782;28;20235;-70
2021/04/01 11:13:15;;;;;;;8.98;4.43;;;28.30;35.90;26.80;96736.00;;;;5082833;28;20206;-69
2021/04/01 11:16:06;;;;;;;3.97;2.55;;;28.10;33.30;26.70;96728.00;;;;5066770;28;20198;-71
2021/04/01 11:18:56;;;;;;;15.07;8.10;;;27.90;33.30;27.80;96725.00;;;;5068369;28;20244;-70
2021/04/01 11:21:45;;;;;;;3.35;2.33;;;27.70;35.10;28.20;96712.00;;;;5085562;28;20205;-68
2021/04/01 11:24:36;;;;;;;121.03;71.75;;;27.90;34.90;28.90;96719.00;;;;5081059;28;20210;-70
2021/04/01 11:27:24;;;;;;;17.92;11.80;;;28.20;35.20;29.40;96717.00;;;;5081382;28;20205;-69
2021/04/01 11:30:13;;;;;;;5.28;2.53;;;28.70;35.40;29.10;96718.00;;;;5072216;28;20216;-69
2021/04/01 11:33:03;;;;;;;5.55;2.38;;;28.90;34.70;28.50;96720.00;;;;5081609;28;20216;-68
2021/04/01 11:36:01;;;;;;;6.10;2.47;;;29.10;33.10;28.10;96711.00;;;;5081737;28;20876;-69
2021/04/01 11:38:55;;;;;;;2.60;2.35;;;28.80;32.70;28.50;96716.00;;;;5076686;28;20247;-71
2021/04/01 11:41:49;;;;;;;5.28;2.33;;;28.80;33.50;28.60;96720.00;;;;5078567;28;20694;-70
2021/04/01 11:44:41;;;;;;;4.97;1.63;;;28.80;33.70;27.80;96724.00;;;;5075263;28;20813;-70
2021/04/01 11:47:32;;;;;;;4.28;2.63;;;28.50;33.90;26.80;96722.00;;;;5077707;28;20235;-70
2021/04/01 11:50:20;;;;;;;5.00;2.40;;;28.20;32.30;27.40;96714.00;;;;5069775;28;20242;-70
2021/04/01 11:53:09;;;;;;;2.97;2.08;;;28.00;33.10;28.20;96699.00;;;;5088615;28;20200;-71
2021/04/01 11:55:59;;;;;;;6.72;2.83;;;28.00;34.20;28.50;96707.00;;;;5087039;28;20784;-69
2021/04/01 11:58:47;;;;;;;4.45;2.30;;;28.00;34.60;28.30;96704.00;;;;5083019;28;20230;-69
2021/04/01 12:01:37;;;;;;;5.20;2.00;;;28.10;33.90;26.50;96673.00;;;;5077918;28;20240;-69
2021/04/01 12:04:27;;;;;;;6.20;2.17;;;28.20;33.00;28.30;96670.00;;;;5081374;28;20199;-70
2021/04/01 12:07:15;;;;;;;5.15;2.80;;;28.10;33.10;29.30;96680.00;;;;5071218;28;20654;-70
2021/04/01 12:10:06;;;;;;;7.38;2.45;;;28.50;33.70;28.20;96690.00;;;;5076951;28;20798;-69
2021/04/01 12:12:56;;;;;;;6.93;2.35;;;28.70;33.00;27.40;96662.00;;;;5077996;28;20200;-69
2021/04/01 12:15:44;;;;;;;5.43;2.28;;;28.50;33.30;28.70;96671.00;;;;5086423;28;20662;-69
2021/04/01 12:18:41;;;;;;;3.60;1.95;;;28.40;34.10;28.40;96680.00;;;;5076349;28;20236;-69
2021/04/01 12:21:29;;;;;;;6.65;2.80;;;28.60;33.40;28.40;96656.00;;;;5072076;28;20664;-69
2021/04/01 12:24:17;;;;;;;6.68;2.80;;;28.40;33.60;27.00;96652.00;;;;5081173;28;20290;-71
2021/04/01 12:27:07;;;;;;;3.95;2.05;;;28.10;32.60;28.10;96675.00;;;;5080393;28;20213;-70
2021/04/01 12:29:56;;;;;;;5.13;2.20;;;28.00;34.40;28.80;96654.00;;;;5078623;28;20242;-71
2021/04/01 12:32:47;;;;;;;3.53;2.15;;;28.40;34.10;29.10;96655.00;;;;5080864;28;20255;-72
2021/04/01 12:35:35;;;;;;;3.35;2.28;;;28.70;34.50;28.40;96648.00;;;;5081251;28;20210;-70
2021/04/01 12:38:31;;;;;;;7.10;2.22;;;28.70;33.40;28.10;96642.00;;;;5082261;28;20231;-73
2021/04/01 12:41:28;;;;;;;4.82;2.30;;;28.70;32.30;29.10;96636.00;;;;5083268;28;20599;-70
2021/04/01 12:44:17;;;;;;;3.35;1.90;;;28.90;33.20;28.70;96631.00;;;;5077601;28;20207;-72
2021/04/01 12:47:05;;;;;;;3.60;1.88;;;29.00;32.50;27.50;96620.00;;;;5079175;28;20665;-71
2021/04/01 12:50:00;;;;;;;5.97;2.60;;;28.80;32.40;27.50;96639.00;;;;5077410;28;20235;-70
2021/04/01 12:52:52;;;;;;;4.32;2.25;;;28.30;31.70;28.60;96654.00;;;;5074892;28;20210;-69
2021/04/01 12:55:45;;;;;;;5.95;2.22;;;28.20;32.00;28.50;96641.00;;;;5079954;28;20205;-68
2021/04/01 12:58:35;;;;;;;6.22;2.67;;;28.40;32.20;29.70;96629.00;;;;5084700;28;20235;-68
2021/04/01 13:01:27;;;;;;;4.28;2.42;;;28.80;32.30;30.60;96619.00;;;;5071101;28;20207;-70
2021/04/01 13:04:19;;;;;;;6.15;3.40;;;29.40;33.00;28.50;96618.00;;;;5080993;28;20739;-71
2021/04/01 13:07:19;;;;;;;3.60;2.10;;;29.40;31.30;27.60;96619.00;;;;5079631;28;20196;-72
2021/04/01 13:10:30;;;;;;;6.35;2.45;;;28.90;31.00;29.40;96605.00;;;;5078169;28;20257;-68
2021/04/01 13:13:18;;;;;;;5.47;3.17;;;29.10;32.50;29.50;96611.00;;;;5082523;28;20204;-70
2021/04/01 13:16:31;;;;;;;8.70;2.60;;;29.40;31.90;30.40;96604.00;;;;5075888;28;20201;-69
2021/04/01 13:19:19;;;;;;;5.03;2.92;;;29.70;32.20;30.20;96613.00;;;;5075511;28;20234;-70
2021/04/01 13:22:11;;;;;;;6.55;2.60;;;30.00;32.10;30.20;96643.00;;;;5080808;28;20226;-69
2021/04/01 13:25:13;;;;;;;6.97;3.42;;;30.10;31.80;28.70;96609.00;;;;5088163;28;20564;-70
2021/04/01 13:28:05;;;;;;;6.65;2.80;;;30.00;30.80;29.10;96613.00;;;;5078191;28;20232;-71
2021/04/01 13:30:59;;;;;;;9.40;2.72;;;29.80;31.30;26.30;96619.00;;;;5078122;28;20362;-70
2021/04/01 13:33:53;;;;;;;8.17;3.87;;;28.40;32.50;25.70;96592.00;;;;5069890;28;20295;-70
2021/04/01 13:36:43;;;;;;;4.67;2.30;;;27.50;34.10;25.90;96573.00;;;;5070023;28;20206;-69
2021/04/01 13:39:33;;;;;;;3.00;2.03;;;26.80;35.10;26.50;96588.00;;;;5071623;28;20224;-70
2021/04/01 13:42:23;;;;;;;4.67;2.37;;;26.90;34.50;25.90;96557.00;;;;5062122;28;20694;-70
2021/04/01 13:45:15;;;;;;;3.63;2.37;;;26.70;34.40;25.90;96611.00;;;;5078267;28;20579;-71
2021/04/01 13:48:05;;;;;;;4.90;2.20;;;26.50;34.90;25.10;96613.00;;;;5078288;28;20228;-70